createdAt,value
2017-01-15T00:00:39.935Z,0
2017-01-15T00:01:39.948Z,0
2017-01-15T00:02:39.993Z,0
2017-01-15T00:03:40.805Z,0
2017-01-15T00:04:40.041Z,0
2017-01-15T00:05:40.466Z,0
2017-01-15T00:06:40.095Z,0
2017-01-15T00:07:40.122Z,0
2017-01-15T00:08:40.153Z,0
2017-01-15T00:09:39.774Z,0
2017-01-15T00:10:40.594Z,0
2017-01-15T00:11:40.631Z,0
2017-01-15T00:12:40.648Z,0
2017-01-15T00:13:40.280Z,0
2017-01-15T00:14:40.303Z,0
2017-01-15T00:15:40.723Z,0
2017-01-15T00:16:40.363Z,0
2017-01-15T00:17:40.792Z,0
2017-01-15T00:18:40.805Z,0
2017-01-15T00:19:41.221Z,0
2017-01-15T00:20:40.857Z,0
2017-01-15T00:21:40.896Z,0
2017-01-15T00:22:40.515Z,0
2017-01-15T00:23:40.929Z,0
2017-01-15T00:24:40.964Z,0
2017-01-15T00:25:40.990Z,0
2017-01-15T00:26:40.225Z,0
2017-01-15T00:27:40.643Z,0
2017-01-15T00:28:41.459Z,0
2017-01-15T00:29:41.101Z,0
2017-01-15T00:30:40.329Z,0
2017-01-15T00:31:40.350Z,0
2017-01-15T00:32:41.566Z,0
2017-01-15T00:33:40.807Z,0
2017-01-15T00:34:41.616Z,0
2017-01-15T00:35:40.853Z,0
2017-01-15T00:36:41.273Z,0
2017-01-15T00:37:41.302Z,0
2017-01-15T00:38:41.734Z,0
2017-01-15T00:39:40.964Z,0
2017-01-15T00:40:40.596Z,0
2017-01-15T00:41:41.013Z,0
2017-01-15T00:42:41.457Z,0
2017-01-15T00:43:41.457Z,0
2017-01-15T00:44:41.882Z,0
2017-01-15T00:45:41.910Z,0
2017-01-15T00:46:41.540Z,0
2017-01-15T00:47:41.160Z,0
2017-01-15T00:48:41.188Z,0
2017-01-15T00:49:40.821Z,0
2017-01-15T00:50:41.250Z,0
2017-01-15T00:51:42.062Z,0
2017-01-15T00:52:41.295Z,0
2017-01-15T00:53:41.351Z,0
2017-01-15T00:54:41.741Z,0
2017-01-15T00:55:41.768Z,0
2017-01-15T00:56:42.190Z,0
2017-01-15T00:57:41.433Z,0
2017-01-15T00:58:41.446Z,0
2017-01-15T00:59:41.478Z,0
2017-01-15T01:00:41.507Z,0
2017-01-15T01:01:41.924Z,0
2017-01-15T01:02:42.345Z,0
2017-01-15T01:03:41.578Z,0
2017-01-15T01:04:41.606Z,0
2017-01-15T01:05:41.619Z,0
2017-01-15T01:06:42.065Z,0
2017-01-15T01:07:42.076Z,0
2017-01-15T01:08:41.315Z,0
2017-01-15T01:09:42.138Z,0
2017-01-15T01:10:42.155Z,0
2017-01-15T01:11:42.192Z,0
2017-01-15T01:12:41.810Z,0
2017-01-15T01:13:41.441Z,0
2017-01-15T01:14:41.473Z,0
2017-01-15T01:15:41.502Z,0
2017-01-15T01:16:42.687Z,0
2017-01-15T01:17:41.947Z,0
2017-01-15T01:18:42.364Z,0
2017-01-15T01:19:42.005Z,0
2017-01-15T01:20:42.818Z,0
2017-01-15T01:21:41.641Z,0
2017-01-15T01:22:42.475Z,0
2017-01-15T01:23:42.503Z,0
2017-01-15T01:24:42.525Z,0
2017-01-15T01:25:42.541Z,0
2017-01-15T01:26:42.177Z,0
2017-01-15T01:27:41.810Z,0
2017-01-15T01:28:43.010Z,0
2017-01-15T01:29:43.052Z,0
2017-01-15T01:30:42.289Z,0
2017-01-15T01:31:42.313Z,0
2017-01-15T01:32:42.730Z,0
2017-01-15T01:33:42.766Z,0
2017-01-15T01:34:42.399Z,0
2017-01-15T01:35:42.414Z,0
2017-01-15T01:36:42.049Z,0
2017-01-15T01:37:43.261Z,0
2017-01-15T01:38:43.283Z,0
2017-01-15T01:39:42.919Z,0
2017-01-15T01:40:42.940Z,0
2017-01-15T01:41:42.960Z,0
2017-01-15T01:42:42.990Z,0
2017-01-15T01:43:42.634Z,0
2017-01-15T01:44:42.655Z,0
2017-01-15T01:45:42.676Z,0
2017-01-15T01:46:43.097Z,0
2017-01-15T01:47:43.527Z,0
2017-01-15T01:48:43.155Z,0
2017-01-15T01:49:43.587Z,0
2017-01-15T01:50:42.804Z,0
2017-01-15T01:51:42.828Z,0
2017-01-15T01:52:42.861Z,0
2017-01-15T01:53:42.883Z,0
2017-01-15T01:54:43.307Z,0
2017-01-15T01:55:43.728Z,0
2017-01-15T01:56:43.356Z,0
2017-01-15T01:57:42.993Z,0
2017-01-15T01:58:43.014Z,0
2017-01-15T01:59:43.439Z,0
2017-01-15T02:00:42.668Z,0
2017-01-15T02:01:43.095Z,0
2017-01-15T02:02:43.113Z,0
2017-01-15T02:03:43.146Z,0
2017-01-15T02:04:43.174Z,0
2017-01-15T02:05:43.595Z,0
2017-01-15T02:06:43.627Z,0
2017-01-15T02:07:43.653Z,0
2017-01-15T02:08:43.673Z,0
2017-01-15T02:09:43.694Z,0
2017-01-15T02:10:43.327Z,0
2017-01-15T02:11:43.356Z,0
2017-01-15T02:12:43.377Z,0
2017-01-15T02:13:43.805Z,0
2017-01-15T02:14:43.039Z,0
2017-01-15T02:15:43.851Z,0
2017-01-15T02:16:43.088Z,0
2017-01-15T02:17:43.117Z,0
2017-01-15T02:18:43.536Z,0
2017-01-15T02:19:43.960Z,0
2017-01-15T02:20:44.388Z,0
2017-01-15T02:21:43.620Z,0
2017-01-15T02:22:43.637Z,0
2017-01-15T02:23:43.266Z,0
2017-01-15T02:24:43.291Z,0
2017-01-15T02:25:44.112Z,0
2017-01-15T02:26:43.740Z,0
2017-01-15T02:27:44.161Z,0
2017-01-15T02:28:43.430Z,0
2017-01-15T02:29:43.823Z,0
2017-01-15T02:30:43.456Z,0
2017-01-15T02:31:43.476Z,0
2017-01-15T02:32:43.505Z,0
2017-01-15T02:33:43.927Z,0
2017-01-15T02:34:44.347Z,0
2017-01-15T02:35:44.372Z,0
2017-01-15T02:36:44.388Z,0
2017-01-15T02:37:44.033Z,0
2017-01-15T02:38:44.059Z,0
2017-01-15T02:39:44.083Z,0
2017-01-15T02:40:43.708Z,0
2017-01-15T02:41:44.533Z,0
2017-01-15T02:42:43.765Z,0
2017-01-15T02:43:43.787Z,0
2017-01-15T02:44:45.007Z,0
2017-01-15T02:45:44.664Z,0
2017-01-15T02:46:43.864Z,0
2017-01-15T02:47:45.086Z,0
2017-01-15T02:48:44.310Z,0
2017-01-15T02:49:44.743Z,0
2017-01-15T02:50:44.768Z,0
2017-01-15T02:51:45.189Z,0
2017-01-15T02:52:45.214Z,0
2017-01-15T02:53:44.843Z,0
2017-01-15T02:54:44.867Z,0
2017-01-15T02:55:44.112Z,0
2017-01-15T02:56:44.921Z,0
2017-01-15T02:57:44.945Z,0
2017-01-15T02:58:44.603Z,0
2017-01-15T02:59:44.203Z,0
2017-01-15T03:00:45.023Z,0
2017-01-15T03:01:45.053Z,0
2017-01-15T03:02:44.677Z,0
2017-01-15T03:03:44.306Z,0
2017-01-15T03:04:44.339Z,0
2017-01-15T03:05:45.156Z,0
2017-01-15T03:06:44.383Z,0
2017-01-15T03:07:44.809Z,0
2017-01-15T03:08:45.627Z,0
2017-01-15T03:09:45.656Z,0
2017-01-15T03:10:45.288Z,0
2017-01-15T03:11:45.336Z,0
2017-01-15T03:12:45.729Z,0
2017-01-15T03:13:45.357Z,0
2017-01-15T03:14:45.007Z,0
2017-01-15T03:15:45.411Z,0
2017-01-15T03:16:45.041Z,0
2017-01-15T03:17:45.857Z,0
2017-01-15T03:18:45.127Z,0
2017-01-15T03:19:45.519Z,0
2017-01-15T03:20:44.747Z,0
2017-01-15T03:21:45.168Z,0
2017-01-15T03:22:45.201Z,0
2017-01-15T03:23:45.622Z,0
2017-01-15T03:24:45.647Z,0
2017-01-15T03:25:46.067Z,0
2017-01-15T03:26:44.904Z,0
2017-01-15T03:27:45.334Z,0
2017-01-15T03:28:45.750Z,0
2017-01-15T03:29:44.979Z,0
2017-01-15T03:30:45.399Z,0
2017-01-15T03:31:45.037Z,0
2017-01-15T03:32:45.853Z,0
2017-01-15T03:33:45.489Z,0
2017-01-15T03:34:45.495Z,0
2017-01-15T03:35:45.141Z,0
2017-01-15T03:36:45.968Z,0
2017-01-15T03:37:45.577Z,0
2017-01-15T03:38:46.014Z,0
2017-01-15T03:39:46.029Z,0
2017-01-15T03:40:46.483Z,0
2017-01-15T03:41:46.079Z,0
2017-01-15T03:42:46.108Z,0
2017-01-15T03:43:45.744Z,0
2017-01-15T03:44:45.766Z,0
2017-01-15T03:45:45.389Z,0
2017-01-15T03:46:46.207Z,0
2017-01-15T03:47:45.844Z,0
2017-01-15T03:48:45.862Z,0
2017-01-15T03:49:46.713Z,0
2017-01-15T03:50:45.910Z,0
2017-01-15T03:51:45.934Z,0
2017-01-15T03:52:45.975Z,0
2017-01-15T03:53:45.992Z,0
2017-01-15T03:54:46.421Z,0
2017-01-15T03:55:46.050Z,0
2017-01-15T03:56:46.470Z,0
2017-01-15T03:57:46.899Z,0
2017-01-15T03:58:45.723Z,0
2017-01-15T03:59:46.158Z,0
2017-01-15T04:00:46.177Z,0
2017-01-15T04:01:46.209Z,0
2017-01-15T04:02:45.826Z,0
2017-01-15T04:03:46.271Z,0
2017-01-15T04:04:47.072Z,0
2017-01-15T04:05:47.096Z,0
2017-01-15T04:06:46.725Z,0
2017-01-15T04:07:46.753Z,0
2017-01-15T04:08:46.781Z,0
2017-01-15T04:09:46.411Z,0
2017-01-15T04:10:46.431Z,0
2017-01-15T04:11:46.469Z,0
2017-01-15T04:12:47.281Z,0
2017-01-15T04:13:47.301Z,0
2017-01-15T04:14:46.539Z,0
2017-01-15T04:15:46.563Z,0
2017-01-15T04:16:46.980Z,0
2017-01-15T04:17:46.213Z,0
2017-01-15T04:18:47.045Z,0
2017-01-15T04:19:47.054Z,0
2017-01-15T04:20:47.483Z,0
2017-01-15T04:21:47.116Z,0
2017-01-15T04:22:46.351Z,0
2017-01-15T04:23:46.765Z,0
2017-01-15T04:24:46.801Z,0
2017-01-15T04:25:46.823Z,0
2017-01-15T04:26:47.239Z,0
2017-01-15T04:27:47.664Z,0
2017-01-15T04:28:47.693Z,0
2017-01-15T04:29:46.921Z,0
2017-01-15T04:30:47.346Z,0
2017-01-15T04:31:46.584Z,0
2017-01-15T04:32:47.007Z,0
2017-01-15T04:33:47.420Z,0
2017-01-15T04:34:46.661Z,0
2017-01-15T04:35:47.470Z,0
2017-01-15T04:36:47.916Z,0
2017-01-15T04:37:47.911Z,0
2017-01-15T04:38:47.555Z,0
2017-01-15T04:39:47.572Z,0
2017-01-15T04:40:47.205Z,0
2017-01-15T04:41:47.622Z,0
2017-01-15T04:42:47.258Z,0
2017-01-15T04:43:47.676Z,0
2017-01-15T04:44:48.100Z,0
2017-01-15T04:45:47.732Z,0
2017-01-15T04:46:47.364Z,0
2017-01-15T04:47:46.990Z,0
2017-01-15T04:48:47.814Z,0
2017-01-15T04:49:47.439Z,0
2017-01-15T04:50:47.852Z,0
2017-01-15T04:51:47.886Z,0
2017-01-15T04:52:48.309Z,0
2017-01-15T04:53:47.537Z,0
2017-01-15T04:54:47.566Z,0
2017-01-15T04:55:47.587Z,0
2017-01-15T04:56:47.220Z,0
2017-01-15T04:57:47.240Z,0
2017-01-15T04:58:48.462Z,0
2017-01-15T04:59:48.085Z,0
2017-01-15T05:00:47.719Z,0
2017-01-15T05:01:48.147Z,0
2017-01-15T05:02:47.768Z,0
2017-01-15T05:03:47.801Z,0
2017-01-15T05:04:47.404Z,0
2017-01-15T05:05:47.454Z,0
2017-01-15T05:06:48.271Z,0
2017-01-15T05:07:47.899Z,0
2017-01-15T05:08:47.943Z,0
2017-01-15T05:09:47.552Z,0
2017-01-15T05:10:47.585Z,0
2017-01-15T05:11:47.997Z,0
2017-01-15T05:12:47.630Z,0
2017-01-15T05:13:48.047Z,0
2017-01-15T05:14:48.476Z,0
2017-01-15T05:15:48.497Z,0
2017-01-15T05:16:48.961Z,0
2017-01-15T05:17:48.150Z,0
2017-01-15T05:18:47.782Z,0
2017-01-15T05:19:47.807Z,0
2017-01-15T05:20:48.240Z,0
2017-01-15T05:21:49.048Z,0
2017-01-15T05:22:48.677Z,0
2017-01-15T05:23:48.710Z,0
2017-01-15T05:24:48.342Z,0
2017-01-15T05:25:47.967Z,0
2017-01-15T05:26:48.384Z,0
2017-01-15T05:27:48.412Z,0
2017-01-15T05:28:48.821Z,0
2017-01-15T05:29:49.250Z,0
2017-01-15T05:30:48.878Z,0
2017-01-15T05:31:48.111Z,0
2017-01-15T05:32:48.527Z,0
2017-01-15T05:33:48.160Z,0
2017-01-15T05:34:48.589Z,0
2017-01-15T05:35:49.009Z,0
2017-01-15T05:36:49.042Z,0
2017-01-15T05:37:49.463Z,0
2017-01-15T05:38:49.476Z,0
2017-01-15T05:39:49.126Z,0
2017-01-15T05:40:48.738Z,0
2017-01-15T05:41:48.773Z,0
2017-01-15T05:42:49.195Z,0
2017-01-15T05:43:48.819Z,0
2017-01-15T05:44:48.448Z,0
2017-01-15T05:45:49.267Z,0
2017-01-15T05:46:49.685Z,0
2017-01-15T05:47:48.917Z,0
2017-01-15T05:48:48.545Z,0
2017-01-15T05:49:48.574Z,0
2017-01-15T05:50:49.395Z,0
2017-01-15T05:51:49.025Z,0
2017-01-15T05:52:49.436Z,0
2017-01-15T05:53:49.077Z,0
2017-01-15T05:54:49.893Z,0
2017-01-15T05:55:49.123Z,0
2017-01-15T05:56:48.751Z,0
2017-01-15T05:57:49.576Z,0
2017-01-15T05:58:49.192Z,0
2017-01-15T05:59:50.022Z,0
2017-01-15T06:00:48.858Z,0
2017-01-15T06:01:49.283Z,0
2017-01-15T06:02:49.296Z,0
2017-01-15T06:03:49.732Z,0
2017-01-15T06:04:48.965Z,0
2017-01-15T06:05:49.778Z,0
2017-01-15T06:06:49.010Z,0
2017-01-15T06:07:49.432Z,0
2017-01-15T06:08:49.852Z,0
2017-01-15T06:09:49.873Z,0
2017-01-15T06:10:49.113Z,0
2017-01-15T06:11:50.330Z,0
2017-01-15T06:12:50.350Z,0
2017-01-15T06:13:49.583Z,0
2017-01-15T06:14:49.215Z,0
2017-01-15T06:15:49.241Z,0
2017-01-15T06:16:49.665Z,0
2017-01-15T06:17:50.486Z,0
2017-01-15T06:18:49.719Z,0
2017-01-15T06:19:50.136Z,0
2017-01-15T06:20:50.161Z,0
2017-01-15T06:21:50.585Z,0
2017-01-15T06:22:50.206Z,0
2017-01-15T06:23:50.234Z,0
2017-01-15T06:24:50.275Z,0
2017-01-15T06:25:49.900Z,0
2017-01-15T06:26:49.526Z,0
2017-01-15T06:27:49.938Z,0
2017-01-15T06:28:50.374Z,0
2017-01-15T06:29:50.395Z,0
2017-01-15T06:30:50.819Z,0
2017-01-15T06:31:49.648Z,0
2017-01-15T06:32:50.073Z,0
2017-01-15T06:33:50.103Z,0
2017-01-15T06:34:49.731Z,0
2017-01-15T06:35:50.559Z,0
2017-01-15T06:36:50.980Z,0
2017-01-15T06:37:50.205Z,0
2017-01-15T06:38:51.024Z,0
2017-01-15T06:39:50.654Z,0
2017-01-15T06:40:50.287Z,0
2017-01-15T06:41:50.314Z,0
2017-01-15T06:42:50.356Z,0
2017-01-15T06:43:50.756Z,0
2017-01-15T06:44:50.789Z,0
2017-01-15T06:45:50.807Z,0
2017-01-15T06:46:50.444Z,0
2017-01-15T06:47:50.860Z,0
2017-01-15T06:48:50.877Z,0
2017-01-15T06:49:50.521Z,0
2017-01-15T06:50:50.546Z,0
2017-01-15T06:51:50.571Z,0
2017-01-15T06:52:50.600Z,0
2017-01-15T06:53:50.616Z,0
2017-01-15T06:54:50.250Z,0
2017-01-15T06:55:50.666Z,4
2017-01-15T06:56:51.487Z,0
2017-01-15T06:57:51.512Z,0
2017-01-15T06:58:51.156Z,4
2017-01-15T06:59:50.773Z,4
2017-01-15T07:00:51.197Z,4
2017-01-15T07:01:50.430Z,4
2017-01-15T07:02:51.252Z,4
2017-01-15T07:03:50.872Z,8
2017-01-15T07:04:51.304Z,8
2017-01-15T07:05:51.331Z,12
2017-01-15T07:06:51.354Z,12
2017-01-15T07:07:50.586Z,12
2017-01-15T07:08:51.007Z,16
2017-01-15T07:09:51.024Z,16
2017-01-15T07:10:51.069Z,16
2017-01-15T07:11:51.094Z,20
2017-01-15T07:12:51.114Z,20
2017-01-15T07:13:51.544Z,24
2017-01-15T07:14:51.568Z,24
2017-01-15T07:15:51.593Z,28
2017-01-15T07:16:50.826Z,32
2017-01-15T07:17:50.850Z,36
2017-01-15T07:18:50.883Z,40
2017-01-15T07:19:51.300Z,44
2017-01-15T07:20:51.334Z,48
2017-01-15T07:21:51.349Z,52
2017-01-15T07:22:51.774Z,56
2017-01-15T07:23:52.190Z,64
2017-01-15T07:24:51.831Z,64
2017-01-15T07:25:52.204Z,72
2017-01-15T07:26:51.892Z,76
2017-01-15T07:27:51.506Z,84
2017-01-15T07:28:52.347Z,88
2017-01-15T07:29:51.560Z,92
2017-01-15T07:30:51.188Z,100
2017-01-15T07:31:51.613Z,104
2017-01-15T07:32:51.642Z,112
2017-01-15T07:33:51.274Z,116
2017-01-15T07:34:52.096Z,124
2017-01-15T07:35:51.720Z,132
2017-01-15T07:36:51.749Z,136
2017-01-15T07:37:51.376Z,144
2017-01-15T07:38:51.798Z,152
2017-01-15T07:39:51.815Z,164
2017-01-15T07:40:52.248Z,172
2017-01-15T07:41:52.272Z,180
2017-01-15T07:42:51.906Z,188
2017-01-15T07:43:51.930Z,196
2017-01-15T07:44:51.958Z,204
2017-01-15T07:45:51.980Z,212
2017-01-15T07:46:51.610Z,220
2017-01-15T07:47:52.428Z,224
2017-01-15T07:48:52.454Z,232
2017-01-15T07:49:52.481Z,244
2017-01-15T07:50:52.903Z,256
2017-01-15T07:51:52.139Z,264
2017-01-15T07:52:52.160Z,272
2017-01-15T07:53:51.792Z,284
2017-01-15T07:54:52.213Z,288
2017-01-15T07:55:51.842Z,288
2017-01-15T07:56:51.870Z,292
2017-01-15T07:57:52.295Z,304
2017-01-15T07:58:53.112Z,316
2017-01-15T07:59:53.136Z,324
2017-01-15T08:00:52.381Z,340
2017-01-15T08:01:52.401Z,352
2017-01-15T08:02:52.422Z,360
2017-01-15T08:03:52.049Z,372
2017-01-15T08:04:52.476Z,376
2017-01-15T08:05:52.108Z,388
2017-01-15T08:06:52.925Z,404
2017-01-15T08:07:52.162Z,416
2017-01-15T08:08:52.578Z,416
2017-01-15T08:09:52.605Z,424
2017-01-15T08:10:53.035Z,440
2017-01-15T08:11:52.668Z,448
2017-01-15T08:12:52.316Z,460
2017-01-15T08:13:52.706Z,464
2017-01-15T08:14:53.527Z,480
2017-01-15T08:15:53.559Z,492
2017-01-15T08:16:53.184Z,500
2017-01-15T08:17:52.812Z,500
2017-01-15T08:18:52.837Z,520
2017-01-15T08:19:52.473Z,520
2017-01-15T08:20:52.890Z,532
2017-01-15T08:21:53.715Z,544
2017-01-15T08:22:52.943Z,556
2017-01-15T08:23:53.368Z,568
2017-01-15T08:24:52.996Z,576
2017-01-15T08:25:53.432Z,584
2017-01-15T08:26:53.054Z,608
2017-01-15T08:27:53.466Z,636
2017-01-15T08:28:52.707Z,660
2017-01-15T08:29:53.520Z,708
2017-01-15T08:30:53.152Z,776
2017-01-15T08:31:52.777Z,840
2017-01-15T08:32:53.593Z,984
2017-01-15T08:33:53.626Z,1112
2017-01-15T08:34:53.651Z,1264
2017-01-15T08:35:53.275Z,1324
2017-01-15T08:36:53.324Z,1284
2017-01-15T08:37:53.333Z,1136
2017-01-15T08:38:54.157Z,1248
2017-01-15T08:39:53.390Z,1456
2017-01-15T08:40:53.415Z,1448
2017-01-15T08:41:54.231Z,1700
2017-01-15T08:42:54.256Z,1928
2017-01-15T08:43:53.893Z,1988
2017-01-15T08:44:53.513Z,1788
2017-01-15T08:45:53.940Z,1548
2017-01-15T08:46:53.571Z,1156
2017-01-15T08:47:53.195Z,1572
2017-01-15T08:48:53.620Z,1992
2017-01-15T08:49:54.046Z,2028
2017-01-15T08:50:54.074Z,2088
2017-01-15T08:51:53.303Z,2028
2017-01-15T08:52:53.731Z,1828
2017-01-15T08:53:53.355Z,1888
2017-01-15T08:54:54.565Z,2008
2017-01-15T08:55:54.625Z,2000
2017-01-15T08:56:54.226Z,2088
2017-01-15T08:57:54.647Z,2160
2017-01-15T08:58:54.299Z,2176
2017-01-15T08:59:53.520Z,2160
2017-01-15T09:00:53.937Z,2076
2017-01-15T09:01:54.362Z,2012
2017-01-15T09:02:53.986Z,1868
2017-01-15T09:03:54.020Z,1520
2017-01-15T09:04:54.443Z,1412
2017-01-15T09:05:54.465Z,840
2017-01-15T09:06:54.102Z,760
2017-01-15T09:07:54.114Z,752
2017-01-15T09:08:54.538Z,772
2017-01-15T09:09:53.785Z,780
2017-01-15T09:10:54.200Z,800
2017-01-15T09:11:54.229Z,776
2017-01-15T09:12:54.247Z,772
2017-01-15T09:13:55.079Z,800
2017-01-15T09:14:54.699Z,812
2017-01-15T09:15:54.726Z,816
2017-01-15T09:16:54.397Z,816
2017-01-15T09:17:54.378Z,832
2017-01-15T09:18:54.806Z,836
2017-01-15T09:19:54.826Z,836
2017-01-15T09:20:54.865Z,816
2017-01-15T09:21:55.281Z,848
2017-01-15T09:22:54.521Z,928
2017-01-15T09:23:54.544Z,908
2017-01-15T09:24:54.570Z,916
2017-01-15T09:25:54.615Z,1000
2017-01-15T09:26:54.624Z,1016
2017-01-15T09:27:55.044Z,996
2017-01-15T09:28:54.678Z,964
2017-01-15T09:29:54.727Z,948
2017-01-15T09:30:55.119Z,916
2017-01-15T09:31:54.760Z,1068
2017-01-15T09:32:55.176Z,1336
2017-01-15T09:33:55.210Z,1168
2017-01-15T09:34:55.218Z,1316
2017-01-15T09:35:54.895Z,1500
2017-01-15T09:36:55.279Z,1496
2017-01-15T09:37:54.520Z,1488
2017-01-15T09:38:55.337Z,1496
2017-01-15T09:39:54.981Z,1484
2017-01-15T09:40:55.778Z,1484
2017-01-15T09:41:55.415Z,1468
2017-01-15T09:42:55.052Z,1448
2017-01-15T09:43:55.113Z,1432
2017-01-15T09:44:55.085Z,1412
2017-01-15T09:45:55.519Z,1400
2017-01-15T09:46:55.936Z,1396
2017-01-15T09:47:55.963Z,1384
2017-01-15T09:48:55.593Z,1364
2017-01-15T09:49:55.233Z,1352
2017-01-15T09:50:54.856Z,1332
2017-01-15T09:51:55.282Z,1308
2017-01-15T09:52:54.912Z,1280
2017-01-15T09:53:55.736Z,1272
2017-01-15T09:54:55.345Z,1248
2017-01-15T09:55:56.186Z,1212
2017-01-15T09:56:56.207Z,1196
2017-01-15T09:57:55.838Z,1180
2017-01-15T09:58:55.860Z,1168
2017-01-15T09:59:55.489Z,1160
2017-01-15T10:00:56.310Z,1148
2017-01-15T10:01:55.943Z,1128
2017-01-15T10:02:55.564Z,1132
2017-01-15T10:03:55.204Z,1136
2017-01-15T10:04:55.638Z,1136
2017-01-15T10:05:56.446Z,1144
2017-01-15T10:06:55.282Z,1152
2017-01-15T10:07:56.095Z,1164
2017-01-15T10:08:55.723Z,1188
2017-01-15T10:09:56.157Z,1220
2017-01-15T10:10:55.786Z,1204
2017-01-15T10:11:56.599Z,1220
2017-01-15T10:12:55.840Z,1236
2017-01-15T10:13:56.260Z,1284
2017-01-15T10:14:56.681Z,1368
2017-01-15T10:15:55.910Z,1396
2017-01-15T10:16:55.559Z,1476
2017-01-15T10:17:55.975Z,1544
2017-01-15T10:18:56.392Z,1540
2017-01-15T10:19:56.025Z,1564
2017-01-15T10:20:56.445Z,1636
2017-01-15T10:21:56.082Z,1744
2017-01-15T10:22:56.115Z,1868
2017-01-15T10:23:56.120Z,1924
2017-01-15T10:24:56.988Z,2000
2017-01-15T10:25:55.792Z,2100
2017-01-15T10:26:57.018Z,2232
2017-01-15T10:27:56.231Z,2284
2017-01-15T10:28:56.260Z,2416
2017-01-15T10:29:55.896Z,3472
2017-01-15T10:30:56.309Z,4012
2017-01-15T10:31:56.735Z,3612
2017-01-15T10:32:56.363Z,3644
2017-01-15T10:33:56.812Z,2872
2017-01-15T10:34:56.024Z,3928
2017-01-15T10:35:56.437Z,3804
2017-01-15T10:36:56.871Z,2344
2017-01-15T10:37:57.327Z,2496
2017-01-15T10:38:56.524Z,3144
2017-01-15T10:39:56.948Z,2416
2017-01-15T10:40:57.364Z,1660
2017-01-15T10:41:57.399Z,1252
2017-01-15T10:42:56.631Z,960
2017-01-15T10:43:56.652Z,916
2017-01-15T10:44:56.284Z,1032
2017-01-15T10:45:57.117Z,1112
2017-01-15T10:46:57.139Z,1064
2017-01-15T10:47:56.759Z,1180
2017-01-15T10:48:57.183Z,1804
2017-01-15T10:49:57.236Z,1936
2017-01-15T10:50:57.241Z,1352
2017-01-15T10:51:57.269Z,1068
2017-01-15T10:52:56.894Z,1184
2017-01-15T10:53:56.928Z,1124
2017-01-15T10:54:56.544Z,1476
2017-01-15T10:55:57.369Z,1184
2017-01-15T10:56:57.002Z,1428
2017-01-15T10:57:57.030Z,1544
2017-01-15T10:58:57.447Z,1780
2017-01-15T10:59:56.708Z,980
2017-01-15T11:00:57.540Z,980
2017-01-15T11:01:56.733Z,988
2017-01-15T11:02:57.162Z,996
2017-01-15T11:03:57.195Z,992
2017-01-15T11:04:57.224Z,1020
2017-01-15T11:05:57.244Z,1132
2017-01-15T11:06:57.665Z,1024
2017-01-15T11:07:57.686Z,1000
2017-01-15T11:08:57.315Z,1012
2017-01-15T11:09:57.351Z,1048
2017-01-15T11:10:57.000Z,1020
2017-01-15T11:11:57.809Z,1036
2017-01-15T11:12:57.421Z,1080
2017-01-15T11:13:57.450Z,1132
2017-01-15T11:14:57.483Z,1424
2017-01-15T11:15:57.896Z,1656
2017-01-15T11:16:58.325Z,1832
2017-01-15T11:17:58.385Z,1860
2017-01-15T11:18:57.982Z,1920
2017-01-15T11:19:58.403Z,1960
2017-01-15T11:20:58.031Z,2124
2017-01-15T11:21:58.060Z,2244
2017-01-15T11:22:57.701Z,2308
2017-01-15T11:23:58.110Z,2444
2017-01-15T11:24:58.542Z,2504
2017-01-15T11:25:57.764Z,2380
2017-01-15T11:26:57.788Z,2444
2017-01-15T11:27:57.821Z,2608
2017-01-15T11:28:57.449Z,2684
2017-01-15T11:29:57.866Z,2824
2017-01-15T11:30:58.295Z,2816
2017-01-15T11:31:57.915Z,2800
2017-01-15T11:32:57.952Z,2404
2017-01-15T11:33:58.377Z,2332
2017-01-15T11:34:58.426Z,2164
2017-01-15T11:35:57.631Z,2060
2017-01-15T11:36:57.655Z,2088
2017-01-15T11:37:58.080Z,2328
2017-01-15T11:38:58.505Z,2488
2017-01-15T11:39:58.530Z,2508
2017-01-15T11:40:58.570Z,2564
2017-01-15T11:41:58.183Z,2652
2017-01-15T11:42:58.612Z,2648
2017-01-15T11:43:58.633Z,2892
2017-01-15T11:44:58.266Z,2972
2017-01-15T11:45:58.298Z,2940
2017-01-15T11:46:58.719Z,2944
2017-01-15T11:47:58.352Z,2944
2017-01-15T11:48:58.368Z,2712
2017-01-15T11:49:58.817Z,2640
2017-01-15T11:50:58.806Z,2504
2017-01-15T11:51:58.847Z,2532
2017-01-15T11:52:59.267Z,2652
2017-01-15T11:53:59.288Z,2788
2017-01-15T11:54:58.528Z,2932
2017-01-15T11:55:58.161Z,3124
2017-01-15T11:56:58.579Z,3124
2017-01-15T11:57:58.607Z,2788
2017-01-15T11:58:59.028Z,2588
2017-01-15T11:59:59.448Z,2372
2017-01-15T12:00:58.694Z,2320
2017-01-15T12:01:59.110Z,2184
2017-01-15T12:02:58.730Z,2136
2017-01-15T12:03:58.763Z,2176
2017-01-15T12:04:58.795Z,2384
2017-01-15T12:05:59.221Z,2496
2017-01-15T12:06:59.281Z,2960
2017-01-15T12:07:58.882Z,2728
2017-01-15T12:08:58.895Z,2420
2017-01-15T12:09:58.532Z,2356
2017-01-15T12:10:58.553Z,2020
2017-01-15T12:11:59.366Z,1684
2017-01-15T12:12:58.614Z,1576
2017-01-15T12:13:59.027Z,1496
2017-01-15T12:15:05.321Z,1680
2017-01-15T12:15:59.484Z,1776
2017-01-15T12:16:59.505Z,1964
2017-01-15T12:17:59.934Z,2388
2017-01-15T12:18:59.166Z,2656
2017-01-15T12:19:59.193Z,2820
2017-01-15T12:20:59.220Z,2992
2017-01-15T12:21:59.649Z,3328
2017-01-15T12:22:59.674Z,3408
2017-01-15T12:23:59.698Z,3384
2017-01-15T12:24:59.723Z,3328
2017-01-15T12:25:59.352Z,3264
2017-01-15T12:27:00.156Z,3364
2017-01-15T12:27:59.796Z,3372
2017-01-15T12:28:59.463Z,3248
2017-01-15T12:29:59.851Z,3068
2017-01-15T12:31:00.509Z,3036
2017-01-15T12:31:59.904Z,3020
2017-01-15T12:33:00.338Z,2920
2017-01-15T12:33:59.573Z,2852
2017-01-15T12:34:59.590Z,2740
2017-01-15T12:36:00.399Z,2636
2017-01-15T12:36:59.648Z,2688
2017-01-15T12:37:59.672Z,2756
2017-01-15T12:38:59.697Z,2744
2017-01-15T12:40:00.122Z,2412
2017-01-15T12:41:00.163Z,2400
2017-01-15T12:41:59.784Z,2424
2017-01-15T12:43:00.208Z,2480
2017-01-15T12:43:59.433Z,2392
2017-01-15T12:44:59.858Z,2456
2017-01-15T12:46:00.287Z,2412
2017-01-15T12:47:00.703Z,2552
2017-01-15T12:48:00.716Z,2684
2017-01-15T12:49:00.757Z,2664
2017-01-15T12:50:00.390Z,2608
2017-01-15T12:50:59.630Z,2576
2017-01-15T12:52:00.039Z,2508
2017-01-15T12:53:00.474Z,2448
2017-01-15T12:54:00.491Z,2472
2017-01-15T12:55:00.937Z,2576
2017-01-15T12:56:00.147Z,2616
2017-01-15T12:57:00.206Z,2576
2017-01-15T12:58:00.199Z,2552
2017-01-15T12:59:00.644Z,2448
2017-01-15T13:00:00.652Z,2308
2017-01-15T13:01:01.073Z,2212
2017-01-15T13:02:00.310Z,2172
2017-01-15T13:03:00.727Z,2180
2017-01-15T13:04:01.155Z,2328
2017-01-15T13:05:00.789Z,2696
2017-01-15T13:06:00.413Z,3276
2017-01-15T13:07:00.442Z,4052
2017-01-15T13:08:00.466Z,3832
2017-01-15T13:09:00.902Z,3328
2017-01-15T13:10:00.516Z,2840
2017-01-15T13:11:00.548Z,2528
2017-01-15T13:12:00.580Z,2444
2017-01-15T13:13:01.006Z,2432
2017-01-15T13:14:00.627Z,2272
2017-01-15T13:15:01.051Z,2068
2017-01-15T13:16:00.685Z,2272
2017-01-15T13:17:00.301Z,2344
2017-01-15T13:18:01.526Z,2544
2017-01-15T13:19:01.194Z,2448
2017-01-15T13:20:01.183Z,2244
2017-01-15T13:21:01.212Z,2088
2017-01-15T13:22:00.840Z,2120
2017-01-15T13:23:01.257Z,2180
2017-01-15T13:24:00.922Z,2108
2017-01-15T13:25:01.311Z,1884
2017-01-15T13:26:01.348Z,1776
2017-01-15T13:27:01.368Z,1768
2017-01-15T13:28:00.993Z,1612
2017-01-15T13:29:01.418Z,1432
2017-01-15T13:30:01.834Z,1268
2017-01-15T13:31:01.078Z,1284
2017-01-15T13:32:01.492Z,1412
2017-01-15T13:33:01.538Z,1568
2017-01-15T13:34:01.153Z,1836
2017-01-15T13:35:01.578Z,1888
2017-01-15T13:36:02.003Z,1812
2017-01-15T13:37:01.632Z,1824
2017-01-15T13:38:01.660Z,1780
2017-01-15T13:39:02.085Z,1796
2017-01-15T13:40:01.727Z,1736
2017-01-15T13:41:01.735Z,1612
2017-01-15T13:42:01.767Z,1588
2017-01-15T13:43:01.796Z,1612
2017-01-15T13:44:16.316Z,1572
2017-01-15T13:45:01.841Z,1604
2017-01-15T13:46:01.874Z,1748
2017-01-15T13:47:01.523Z,1736
2017-01-15T13:48:01.915Z,1472
2017-01-15T13:49:01.952Z,1276
2017-01-15T13:50:01.981Z,1152
2017-01-15T13:51:02.018Z,1056
2017-01-15T13:52:01.234Z,1028
2017-01-15T13:53:01.263Z,1068
2017-01-15T13:54:01.693Z,1096
2017-01-15T13:55:01.712Z,1208
2017-01-15T13:56:02.141Z,1332
2017-01-15T13:57:01.761Z,1420
2017-01-15T13:58:01.795Z,1412
2017-01-15T13:59:02.223Z,1340
2017-01-15T14:00:02.636Z,1360
2017-01-15T14:01:02.663Z,1288
2017-01-15T14:02:01.896Z,1172
2017-01-15T14:03:02.325Z,972
2017-01-15T14:04:02.733Z,784
2017-01-15T14:05:02.770Z,652
2017-01-15T14:06:02.401Z,552